sensor_id;sensor_type;location;lat;lon;timestamp;P1;durP1;ratioP1;P2;durP2;ratioP2
3274;SDS011;1649;53.672;10.064;2023-11-19T00:01:55;16.33;;;9.07;;
3274;SDS011;1649;53.672;10.064;2023-11-19T00:04:21;17.27;;;7.73;;
3274;SDS011;1649;53.672;10.064;2023-11-19T00:06:47;16.33;;;6.90;;
3274;SDS011;1649;53.672;10.064;2023-11-19T00:09:13;14.23;;;8.30;;
3274;SDS011;1649;53.672;10.064;2023-11-19T00:11:40;14.80;;;8.33;;
3274;SDS011;1649;53.672;10.064;2023-11-19T00:14:05;12.17;;;6.97;;
3274;SDS011;1649;53.672;10.064;2023-11-19T00:16:33;13.37;;;7.03;;
3274;SDS011;1649;53.672;10.064;2023-11-19T00:18:59;17.00;;;8.23;;
3274;SDS011;1649;53.672;10.064;2023-11-19T00:21:25;12.73;;;6.90;;
3274;SDS011;1649;53.672;10.064;2023-11-19T00:23:53;14.20;;;7.50;;
3274;SDS011;1649;53.672;10.064;2023-11-19T00:26:19;13.40;;;6.93;;
3274;SDS011;1649;53.672;10.064;2023-11-19T00:28:44;15.90;;;7.60;;
3274;SDS011;1649;53.672;10.064;2023-11-19T00:31:10;11.77;;;5.27;;
3274;SDS011;1649;53.672;10.064;2023-11-19T00:33:35;11.17;;;6.10;;
3274;SDS011;1649;53.672;10.064;2023-11-19T00:36:02;10.97;;;5.90;;
3274;SDS011;1649;53.672;10.064;2023-11-19T00:38:28;12.40;;;6.03;;
3274;SDS011;1649;53.672;10.064;2023-11-19T00:40:53;9.47;;;5.87;;
3274;SDS011;1649;53.672;10.064;2023-11-19T00:43:19;12.53;;;6.80;;
3274;SDS011;1649;53.672;10.064;2023-11-19T00:45:47;11.40;;;6.07;;
3274;SDS011;1649;53.672;10.064;2023-11-19T00:48:15;10.43;;;6.30;;
3274;SDS011;1649;53.672;10.064;2023-11-19T00:50:41;11.17;;;6.20;;
3274;SDS011;1649;53.672;10.064;2023-11-19T00:53:09;12.27;;;6.03;;
3274;SDS011;1649;53.672;10.064;2023-11-19T00:55:35;8.90;;;5.10;;
3274;SDS011;1649;53.672;10.064;2023-11-19T00:58:00;12.60;;;5.17;;
3274;SDS011;1649;53.672;10.064;2023-11-19T01:00:26;11.00;;;5.47;;
3274;SDS011;1649;53.672;10.064;2023-11-19T01:02:52;11.73;;;5.47;;
3274;SDS011;1649;53.672;10.064;2023-11-19T01:05:18;9.07;;;4.90;;
3274;SDS011;1649;53.672;10.064;2023-11-19T01:07:47;8.47;;;4.43;;
3274;SDS011;1649;53.672;10.064;2023-11-19T01:10:12;6.43;;;3.50;;
3274;SDS011;1649;53.672;10.064;2023-11-19T01:12:38;8.37;;;4.40;;
3274;SDS011;1649;53.672;10.064;2023-11-19T01:15:04;8.23;;;4.10;;
3274;SDS011;1649;53.672;10.064;2023-11-19T01:17:31;7.20;;;3.83;;
3274;SDS011;1649;53.672;10.064;2023-11-19T01:19:57;5.67;;;2.70;;
3274;SDS011;1649;53.672;10.064;2023-11-19T01:22:22;6.47;;;3.37;;
3274;SDS011;1649;53.672;10.064;2023-11-19T01:24:48;7.80;;;3.97;;
3274;SDS011;1649;53.672;10.064;2023-11-19T01:27:13;6.10;;;2.77;;
3274;SDS011;1649;53.672;10.064;2023-11-19T01:29:39;7.73;;;4.23;;
3274;SDS011;1649;53.672;10.064;2023-11-19T01:32:04;8.20;;;4.00;;
3274;SDS011;1649;53.672;10.064;2023-11-19T01:34:30;8.67;;;3.40;;
3274;SDS011;1649;53.672;10.064;2023-11-19T01:36:56;7.30;;;3.80;;
3274;SDS011;1649;53.672;10.064;2023-11-19T01:39:21;6.27;;;3.60;;
3274;SDS011;1649;53.672;10.064;2023-11-19T01:41:47;6.07;;;3.20;;
3274;SDS011;1649;53.672;10.064;2023-11-19T01:44:13;6.20;;;3.60;;
3274;SDS011;1649;53.672;10.064;2023-11-19T01:46:40;5.70;;;3.20;;
3274;SDS011;1649;53.672;10.064;2023-11-19T01:49:07;5.90;;;3.20;;
3274;SDS011;1649;53.672;10.064;2023-11-19T01:51:33;7.77;;;3.00;;
3274;SDS011;1649;53.672;10.064;2023-11-19T01:53:59;6.47;;;3.57;;
3274;SDS011;1649;53.672;10.064;2023-11-19T01:56:26;5.13;;;2.63;;
3274;SDS011;1649;53.672;10.064;2023-11-19T01:58:52;6.30;;;2.83;;
3274;SDS011;1649;53.672;10.064;2023-11-19T02:01:20;6.33;;;3.30;;
3274;SDS011;1649;53.672;10.064;2023-11-19T02:03:47;5.90;;;3.20;;
3274;SDS011;1649;53.672;10.064;2023-11-19T02:06:12;5.70;;;3.00;;
3274;SDS011;1649;53.672;10.064;2023-11-19T02:08:38;5.97;;;2.90;;
3274;SDS011;1649;53.672;10.064;2023-11-19T02:11:04;5.27;;;2.50;;
3274;SDS011;1649;53.672;10.064;2023-11-19T02:13:31;4.73;;;2.50;;
3274;SDS011;1649;53.672;10.064;2023-11-19T02:15:57;4.80;;;2.30;;
3274;SDS011;1649;53.672;10.064;2023-11-19T02:18:23;5.27;;;2.50;;
3274;SDS011;1649;53.672;10.064;2023-11-19T02:20:52;5.30;;;2.30;;
3274;SDS011;1649;53.672;10.064;2023-11-19T02:23:22;5.27;;;2.70;;
3274;SDS011;1649;53.672;10.064;2023-11-19T02:28:39;4.80;;;2.20;;
3274;SDS011;1649;53.672;10.064;2023-11-19T02:31:05;4.53;;;2.63;;
3274;SDS011;1649;53.672;10.064;2023-11-19T02:33:34;4.80;;;2.20;;
3274;SDS011;1649;53.672;10.064;2023-11-19T02:36:04;3.93;;;2.03;;
3274;SDS011;1649;53.672;10.064;2023-11-19T02:38:30;4.97;;;2.50;;
3274;SDS011;1649;53.672;10.064;2023-11-19T02:40:56;4.10;;;1.77;;
3274;SDS011;1649;53.672;10.064;2023-11-19T02:43:22;5.00;;;2.60;;
3274;SDS011;1649;53.672;10.064;2023-11-19T02:45:47;3.60;;;1.80;;
3274;SDS011;1649;53.672;10.064;2023-11-19T02:48:13;4.33;;;2.10;;
3274;SDS011;1649;53.672;10.064;2023-11-19T02:50:40;4.87;;;2.37;;
3274;SDS011;1649;53.672;10.064;2023-11-19T02:53:09;4.07;;;1.97;;
3274;SDS011;1649;53.672;10.064;2023-11-19T02:55:34;4.80;;;2.30;;
3274;SDS011;1649;53.672;10.064;2023-11-19T02:58:03;4.13;;;2.00;;
3274;SDS011;1649;53.672;10.064;2023-11-19T03:00:39;4.70;;;1.77;;
3274;SDS011;1649;53.672;10.064;2023-11-19T03:03:12;4.10;;;1.80;;
3274;SDS011;1649;53.672;10.064;2023-11-19T03:05:48;3.80;;;1.70;;
3274;SDS011;1649;53.672;10.064;2023-11-19T03:08:17;5.87;;;2.30;;
3274;SDS011;1649;53.672;10.064;2023-11-19T03:10:43;5.37;;;2.07;;
3274;SDS011;1649;53.672;10.064;2023-11-19T03:13:12;5.13;;;2.03;;
3274;SDS011;1649;53.672;10.064;2023-11-19T03:15:42;5.90;;;2.67;;
3274;SDS011;1649;53.672;10.064;2023-11-19T03:18:08;4.60;;;2.20;;
3274;SDS011;1649;53.672;10.064;2023-11-19T03:20:34;5.07;;;2.70;;
3274;SDS011;1649;53.672;10.064;2023-11-19T03:22:59;6.27;;;3.20;;
3274;SDS011;1649;53.672;10.064;2023-11-19T03:25:26;5.97;;;2.77;;
3274;SDS011;1649;53.672;10.064;2023-11-19T03:27:57;5.70;;;2.70;;
3274;SDS011;1649;53.672;10.064;2023-11-19T03:30:23;5.80;;;2.17;;
3274;SDS011;1649;53.672;10.064;2023-11-19T03:32:49;6.07;;;3.17;;
3274;SDS011;1649;53.672;10.064;2023-11-19T03:35:15;5.40;;;3.33;;
3274;SDS011;1649;53.672;10.064;2023-11-19T03:37:40;6.33;;;3.33;;
3274;SDS011;1649;53.672;10.064;2023-11-19T03:40:06;6.37;;;3.80;;
3274;SDS011;1649;53.672;10.064;2023-11-19T03:42:32;6.80;;;3.47;;
3274;SDS011;1649;53.672;10.064;2023-11-19T03:44:57;5.47;;;2.97;;
3274;SDS011;1649;53.672;10.064;2023-11-19T03:47:24;5.40;;;2.97;;
3274;SDS011;1649;53.672;10.064;2023-11-19T03:49:49;5.93;;;3.40;;
3274;SDS011;1649;53.672;10.064;2023-11-19T03:52:16;6.93;;;3.47;;
3274;SDS011;1649;53.672;10.064;2023-11-19T03:54:42;7.60;;;3.67;;
3274;SDS011;1649;53.672;10.064;2023-11-19T03:57:08;7.10;;;3.83;;
3274;SDS011;1649;53.672;10.064;2023-11-19T03:59:35;6.90;;;3.50;;
3274;SDS011;1649;53.672;10.064;2023-11-19T04:02:01;6.23;;;3.50;;
3274;SDS011;1649;53.672;10.064;2023-11-19T04:04:27;8.70;;;4.60;;
3274;SDS011;1649;53.672;10.064;2023-11-19T04:06:54;8.00;;;3.97;;
3274;SDS011;1649;53.672;10.064;2023-11-19T04:09:20;7.40;;;4.13;;
3274;SDS011;1649;53.672;10.064;2023-11-19T04:11:46;6.30;;;3.30;;
3274;SDS011;1649;53.672;10.064;2023-11-19T04:14:12;8.50;;;4.47;;
3274;SDS011;1649;53.672;10.064;2023-11-19T04:16:38;7.97;;;4.77;;
3274;SDS011;1649;53.672;10.064;2023-11-19T04:19:04;9.20;;;4.80;;
3274;SDS011;1649;53.672;10.064;2023-11-19T04:21:29;10.20;;;4.47;;
3274;SDS011;1649;53.672;10.064;2023-11-19T04:23:55;8.60;;;4.90;;
3274;SDS011;1649;53.672;10.064;2023-11-19T04:26:21;9.13;;;4.50;;
3274;SDS011;1649;53.672;10.064;2023-11-19T04:28:46;9.43;;;5.20;;
3274;SDS011;1649;53.672;10.064;2023-11-19T04:31:14;9.40;;;5.33;;
3274;SDS011;1649;53.672;10.064;2023-11-19T04:33:41;11.37;;;5.57;;
3274;SDS011;1649;53.672;10.064;2023-11-19T04:36:06;10.90;;;5.93;;
3274;SDS011;1649;53.672;10.064;2023-11-19T04:38:32;11.10;;;5.20;;
3274;SDS011;1649;53.672;10.064;2023-11-19T04:40:58;9.83;;;5.20;;
3274;SDS011;1649;53.672;10.064;2023-11-19T04:43:23;10.60;;;5.53;;
3274;SDS011;1649;53.672;10.064;2023-11-19T04:45:48;9.43;;;5.47;;
3274;SDS011;1649;53.672;10.064;2023-11-19T04:48:14;8.20;;;4.33;;
3274;SDS011;1649;53.672;10.064;2023-11-19T04:50:40;11.73;;;6.10;;
3274;SDS011;1649;53.672;10.064;2023-11-19T04:53:05;11.43;;;5.83;;
3274;SDS011;1649;53.672;10.064;2023-11-19T04:55:30;13.40;;;6.70;;
3274;SDS011;1649;53.672;10.064;2023-11-19T04:57:56;11.53;;;5.40;;
3274;SDS011;1649;53.672;10.064;2023-11-19T05:00:21;14.57;;;6.40;;
3274;SDS011;1649;53.672;10.064;2023-11-19T05:02:47;13.10;;;7.03;;
3274;SDS011;1649;53.672;10.064;2023-11-19T05:05:12;17.87;;;8.33;;
3274;SDS011;1649;53.672;10.064;2023-11-19T05:07:40;14.43;;;7.27;;
3274;SDS011;1649;53.672;10.064;2023-11-19T05:10:05;14.50;;;6.93;;
3274;SDS011;1649;53.672;10.064;2023-11-19T05:12:32;19.00;;;9.57;;
3274;SDS011;1649;53.672;10.064;2023-11-19T05:14:57;19.73;;;9.90;;
3274;SDS011;1649;53.672;10.064;2023-11-19T05:17:23;17.50;;;9.10;;
3274;SDS011;1649;53.672;10.064;2023-11-19T05:19:48;16.00;;;8.70;;
3274;SDS011;1649;53.672;10.064;2023-11-19T05:22:14;20.23;;;9.90;;
3274;SDS011;1649;53.672;10.064;2023-11-19T05:24:40;13.83;;;6.50;;
3274;SDS011;1649;53.672;10.064;2023-11-19T05:27:06;22.13;;;10.00;;
3274;SDS011;1649;53.672;10.064;2023-11-19T05:29:32;24.93;;;10.80;;
3274;SDS011;1649;53.672;10.064;2023-11-19T05:31:58;20.97;;;10.53;;
3274;SDS011;1649;53.672;10.064;2023-11-19T05:34:24;20.63;;;9.60;;
3274;SDS011;1649;53.672;10.064;2023-11-19T05:36:50;22.07;;;11.40;;
3274;SDS011;1649;53.672;10.064;2023-11-19T05:39:16;25.27;;;12.23;;
3274;SDS011;1649;53.672;10.064;2023-11-19T05:41:43;19.77;;;10.77;;
3274;SDS011;1649;53.672;10.064;2023-11-19T05:44:09;24.70;;;11.53;;
3274;SDS011;1649;53.672;10.064;2023-11-19T05:46:34;28.83;;;12.60;;
3274;SDS011;1649;53.672;10.064;2023-11-19T05:49:05;23.73;;;11.87;;
3274;SDS011;1649;53.672;10.064;2023-11-19T05:51:30;27.77;;;12.47;;
3274;SDS011;1649;53.672;10.064;2023-11-19T05:53:56;30.17;;;13.57;;
3274;SDS011;1649;53.672;10.064;2023-11-19T05:56:22;29.63;;;13.57;;
3274;SDS011;1649;53.672;10.064;2023-11-19T05:58:47;23.40;;;11.33;;
3274;SDS011;1649;53.672;10.064;2023-11-19T06:01:14;27.80;;;13.60;;
3274;SDS011;1649;53.672;10.064;2023-11-19T06:03:39;36.13;;;13.90;;
3274;SDS011;1649;53.672;10.064;2023-11-19T06:06:05;31.90;;;14.27;;
3274;SDS011;1649;53.672;10.064;2023-11-19T06:08:31;28.37;;;14.03;;
3274;SDS011;1649;53.672;10.064;2023-11-19T06:10:57;28.80;;;13.97;;
3274;SDS011;1649;53.672;10.064;2023-11-19T06:13:23;28.77;;;14.17;;
3274;SDS011;1649;53.672;10.064;2023-11-19T06:15:49;34.00;;;14.23;;
3274;SDS011;1649;53.672;10.064;2023-11-19T06:18:15;27.00;;;13.20;;
3274;SDS011;1649;53.672;10.064;2023-11-19T06:20:41;32.10;;;13.50;;
3274;SDS011;1649;53.672;10.064;2023-11-19T06:23:06;31.33;;;14.17;;
3274;SDS011;1649;53.672;10.064;2023-11-19T06:25:32;30.43;;;13.10;;
3274;SDS011;1649;53.672;10.064;2023-11-19T06:27:58;31.33;;;14.53;;
3274;SDS011;1649;53.672;10.064;2023-11-19T06:30:23;29.67;;;14.30;;
3274;SDS011;1649;53.672;10.064;2023-11-19T06:32:49;31.60;;;14.70;;
3274;SDS011;1649;53.672;10.064;2023-11-19T06:35:14;28.30;;;13.70;;
3274;SDS011;1649;53.672;10.064;2023-11-19T06:37:40;31.63;;;13.93;;
3274;SDS011;1649;53.672;10.064;2023-11-19T06:40:06;28.10;;;13.60;;
3274;SDS011;1649;53.672;10.064;2023-11-19T06:42:34;35.87;;;13.00;;
3274;SDS011;1649;53.672;10.064;2023-11-19T06:45:00;36.03;;;15.10;;
3274;SDS011;1649;53.672;10.064;2023-11-19T06:47:28;32.70;;;14.57;;
3274;SDS011;1649;53.672;10.064;2023-11-19T06:49:54;31.43;;;14.77;;
3274;SDS011;1649;53.672;10.064;2023-11-19T06:52:20;34.77;;;14.90;;
3274;SDS011;1649;53.672;10.064;2023-11-19T06:54:46;35.50;;;14.80;;
3274;SDS011;1649;53.672;10.064;2023-11-19T06:57:11;34.13;;;13.20;;
3274;SDS011;1649;53.672;10.064;2023-11-19T06:59:37;37.00;;;13.53;;
3274;SDS011;1649;53.672;10.064;2023-11-19T07:02:03;33.07;;;13.00;;
3274;SDS011;1649;53.672;10.064;2023-11-19T07:04:29;33.43;;;12.63;;
3274;SDS011;1649;53.672;10.064;2023-11-19T07:06:55;35.70;;;12.53;;
3274;SDS011;1649;53.672;10.064;2023-11-19T07:09:21;30.90;;;11.07;;
3274;SDS011;1649;53.672;10.064;2023-11-19T07:11:48;28.00;;;9.47;;
3274;SDS011;1649;53.672;10.064;2023-11-19T07:14:15;27.50;;;8.97;;
3274;SDS011;1649;53.672;10.064;2023-11-19T07:16:41;28.20;;;10.10;;
3274;SDS011;1649;53.672;10.064;2023-11-19T07:19:07;21.63;;;8.70;;
3274;SDS011;1649;53.672;10.064;2023-11-19T07:21:33;25.20;;;9.00;;
3274;SDS011;1649;53.672;10.064;2023-11-19T07:23:59;36.97;;;9.27;;
3274;SDS011;1649;53.672;10.064;2023-11-19T07:26:24;23.70;;;7.30;;
3274;SDS011;1649;53.672;10.064;2023-11-19T07:28:50;24.43;;;8.43;;
3274;SDS011;1649;53.672;10.064;2023-11-19T07:31:16;33.00;;;9.23;;
3274;SDS011;1649;53.672;10.064;2023-11-19T07:33:43;34.00;;;8.10;;
3274;SDS011;1649;53.672;10.064;2023-11-19T07:36:09;20.63;;;6.43;;
3274;SDS011;1649;53.672;10.064;2023-11-19T07:38:35;32.97;;;7.40;;
3274;SDS011;1649;53.672;10.064;2023-11-19T07:41:00;36.97;;;8.40;;
3274;SDS011;1649;53.672;10.064;2023-11-19T07:43:26;30.13;;;7.00;;
3274;SDS011;1649;53.672;10.064;2023-11-19T07:45:52;27.57;;;7.97;;
3274;SDS011;1649;53.672;10.064;2023-11-19T07:48:17;26.47;;;7.77;;
3274;SDS011;1649;53.672;10.064;2023-11-19T07:50:47;29.80;;;6.17;;
3274;SDS011;1649;53.672;10.064;2023-11-19T07:53:15;32.13;;;7.30;;
3274;SDS011;1649;53.672;10.064;2023-11-19T07:55:41;23.97;;;6.70;;
3274;SDS011;1649;53.672;10.064;2023-11-19T07:58:06;30.10;;;7.40;;
3274;SDS011;1649;53.672;10.064;2023-11-19T08:00:32;29.30;;;7.37;;
3274;SDS011;1649;53.672;10.064;2023-11-19T08:02:57;28.47;;;6.70;;
3274;SDS011;1649;53.672;10.064;2023-11-19T08:05:23;27.57;;;5.90;;
3274;SDS011;1649;53.672;10.064;2023-11-19T08:07:49;28.13;;;6.43;;
3274;SDS011;1649;53.672;10.064;2023-11-19T08:10:17;23.53;;;6.00;;
3274;SDS011;1649;53.672;10.064;2023-11-19T08:12:44;27.50;;;6.97;;
3274;SDS011;1649;53.672;10.064;2023-11-19T08:15:09;31.50;;;6.73;;
3274;SDS011;1649;53.672;10.064;2023-11-19T08:17:35;31.97;;;5.73;;
3274;SDS011;1649;53.672;10.064;2023-11-19T08:20:01;35.70;;;7.00;;
3274;SDS011;1649;53.672;10.064;2023-11-19T08:22:27;33.80;;;6.20;;
3274;SDS011;1649;53.672;10.064;2023-11-19T08:24:52;29.47;;;6.47;;
3274;SDS011;1649;53.672;10.064;2023-11-19T08:27:17;23.80;;;5.87;;
3274;SDS011;1649;53.672;10.064;2023-11-19T08:29:43;31.47;;;5.93;;
3274;SDS011;1649;53.672;10.064;2023-11-19T08:32:09;30.63;;;6.83;;
3274;SDS011;1649;53.672;10.064;2023-11-19T08:34:36;46.77;;;6.93;;
3274;SDS011;1649;53.672;10.064;2023-11-19T08:37:01;28.73;;;5.60;;
3274;SDS011;1649;53.672;10.064;2023-11-19T08:39:26;27.00;;;5.20;;
3274;SDS011;1649;53.672;10.064;2023-11-19T08:41:52;27.53;;;6.57;;
3274;SDS011;1649;53.672;10.064;2023-11-19T08:44:17;31.27;;;6.40;;
3274;SDS011;1649;53.672;10.064;2023-11-19T08:46:48;33.97;;;7.77;;
3274;SDS011;1649;53.672;10.064;2023-11-19T08:49:14;24.63;;;5.93;;
3274;SDS011;1649;53.672;10.064;2023-11-19T08:51:40;36.37;;;7.80;;
3274;SDS011;1649;53.672;10.064;2023-11-19T08:54:06;28.77;;;5.80;;
3274;SDS011;1649;53.672;10.064;2023-11-19T08:56:32;23.23;;;5.90;;
3274;SDS011;1649;53.672;10.064;2023-11-19T08:58:59;40.33;;;7.10;;
3274;SDS011;1649;53.672;10.064;2023-11-19T09:01:25;27.80;;;5.87;;
3274;SDS011;1649;53.672;10.064;2023-11-19T09:03:50;33.30;;;6.20;;
3274;SDS011;1649;53.672;10.064;2023-11-19T09:06:16;23.40;;;5.83;;
3274;SDS011;1649;53.672;10.064;2023-11-19T09:08:42;27.80;;;6.43;;
3274;SDS011;1649;53.672;10.064;2023-11-19T09:11:09;22.20;;;5.53;;
3274;SDS011;1649;53.672;10.064;2023-11-19T09:13:34;25.90;;;5.70;;
3274;SDS011;1649;53.672;10.064;2023-11-19T09:16:00;32.00;;;6.20;;
3274;SDS011;1649;53.672;10.064;2023-11-19T09:18:32;19.57;;;4.93;;
3274;SDS011;1649;53.672;10.064;2023-11-19T09:20:57;22.63;;;5.23;;
3274;SDS011;1649;53.672;10.064;2023-11-19T09:23:23;29.73;;;5.20;;
3274;SDS011;1649;53.672;10.064;2023-11-19T09:25:50;19.90;;;5.13;;
3274;SDS011;1649;53.672;10.064;2023-11-19T09:28:15;25.53;;;5.50;;
3274;SDS011;1649;53.672;10.064;2023-11-19T09:30:41;24.83;;;5.50;;
3274;SDS011;1649;53.672;10.064;2023-11-19T09:33:06;18.57;;;4.70;;
3274;SDS011;1649;53.672;10.064;2023-11-19T09:35:32;23.63;;;4.80;;
3274;SDS011;1649;53.672;10.064;2023-11-19T09:37:58;25.07;;;5.80;;
3274;SDS011;1649;53.672;10.064;2023-11-19T09:40:24;23.47;;;6.23;;
3274;SDS011;1649;53.672;10.064;2023-11-19T09:42:49;20.90;;;5.17;;
3274;SDS011;1649;53.672;10.064;2023-11-19T09:45:15;24.00;;;5.40;;
3274;SDS011;1649;53.672;10.064;2023-11-19T09:47:43;26.83;;;5.13;;
3274;SDS011;1649;53.672;10.064;2023-11-19T09:50:10;25.77;;;5.47;;
3274;SDS011;1649;53.672;10.064;2023-11-19T09:52:45;30.90;;;5.80;;
3274;SDS011;1649;53.672;10.064;2023-11-19T09:55:11;26.77;;;5.90;;
3274;SDS011;1649;53.672;10.064;2023-11-19T09:57:40;23.27;;;6.00;;
3274;SDS011;1649;53.672;10.064;2023-11-19T10:00:09;25.23;;;5.00;;
3274;SDS011;1649;53.672;10.064;2023-11-19T10:02:36;30.67;;;6.07;;
3274;SDS011;1649;53.672;10.064;2023-11-19T10:05:08;23.40;;;4.30;;
3274;SDS011;1649;53.672;10.064;2023-11-19T10:07:35;28.80;;;5.03;;
3274;SDS011;1649;53.672;10.064;2023-11-19T10:10:03;29.57;;;6.00;;
3274;SDS011;1649;53.672;10.064;2023-11-19T10:12:30;21.43;;;6.10;;
3274;SDS011;1649;53.672;10.064;2023-11-19T10:14:56;23.50;;;5.17;;
3274;SDS011;1649;53.672;10.064;2023-11-19T10:17:29;24.50;;;4.93;;
3274;SDS011;1649;53.672;10.064;2023-11-19T10:19:58;24.83;;;5.23;;
3274;SDS011;1649;53.672;10.064;2023-11-19T10:22:24;22.97;;;4.93;;
3274;SDS011;1649;53.672;10.064;2023-11-19T10:24:51;23.47;;;4.83;;
3274;SDS011;1649;53.672;10.064;2023-11-19T10:27:17;17.40;;;4.63;;
3274;SDS011;1649;53.672;10.064;2023-11-19T10:29:45;26.90;;;4.57;;
3274;SDS011;1649;53.672;10.064;2023-11-19T10:32:12;26.90;;;6.10;;
3274;SDS011;1649;53.672;10.064;2023-11-19T10:34:38;25.93;;;4.93;;
3274;SDS011;1649;53.672;10.064;2023-11-19T10:37:04;23.37;;;5.47;;
3274;SDS011;1649;53.672;10.064;2023-11-19T10:39:51;30.10;;;5.73;;
3274;SDS011;1649;53.672;10.064;2023-11-19T10:42:19;25.00;;;6.37;;
3274;SDS011;1649;53.672;10.064;2023-11-19T10:44:45;24.17;;;4.87;;
3274;SDS011;1649;53.672;10.064;2023-11-19T10:47:10;19.90;;;5.53;;
3274;SDS011;1649;53.672;10.064;2023-11-19T10:49:38;23.23;;;4.27;;
3274;SDS011;1649;53.672;10.064;2023-11-19T10:52:04;25.47;;;5.63;;
3274;SDS011;1649;53.672;10.064;2023-11-19T10:54:32;21.03;;;5.30;;
3274;SDS011;1649;53.672;10.064;2023-11-19T10:56:59;19.10;;;5.33;;
3274;SDS011;1649;53.672;10.064;2023-11-19T10:59:27;16.50;;;4.13;;
3274;SDS011;1649;53.672;10.064;2023-11-19T11:01:55;19.73;;;4.03;;
3274;SDS011;1649;53.672;10.064;2023-11-19T11:04:25;23.30;;;4.67;;
3274;SDS011;1649;53.672;10.064;2023-11-19T11:06:53;18.30;;;4.43;;
3274;SDS011;1649;53.672;10.064;2023-11-19T11:09:23;23.20;;;5.77;;
3274;SDS011;1649;53.672;10.064;2023-11-19T11:11:54;18.93;;;4.50;;
3274;SDS011;1649;53.672;10.064;2023-11-19T11:14:20;19.57;;;4.57;;
3274;SDS011;1649;53.672;10.064;2023-11-19T11:16:47;19.70;;;4.00;;
3274;SDS011;1649;53.672;10.064;2023-11-19T11:19:15;24.53;;;4.40;;
3274;SDS011;1649;53.672;10.064;2023-11-19T11:21:43;14.30;;;3.67;;
3274;SDS011;1649;53.672;10.064;2023-11-19T11:24:23;22.03;;;4.00;;
3274;SDS011;1649;53.672;10.064;2023-11-19T11:27:17;18.87;;;4.17;;
3274;SDS011;1649;53.672;10.064;2023-11-19T11:32:58;21.33;;;4.33;;
3274;SDS011;1649;53.672;10.064;2023-11-19T11:38:04;25.23;;;5.47;;
3274;SDS011;1649;53.672;10.064;2023-11-19T11:40:32;23.93;;;4.67;;
3274;SDS011;1649;53.672;10.064;2023-11-19T11:42:57;28.30;;;6.47;;
3274;SDS011;1649;53.672;10.064;2023-11-19T11:45:34;23.23;;;5.10;;
3274;SDS011;1649;53.672;10.064;2023-11-19T11:48:11;29.03;;;6.37;;
3274;SDS011;1649;53.672;10.064;2023-11-19T11:50:52;28.13;;;5.30;;
3274;SDS011;1649;53.672;10.064;2023-11-19T11:53:19;28.10;;;4.67;;
3274;SDS011;1649;53.672;10.064;2023-11-19T11:58:13;22.00;;;5.60;;
3274;SDS011;1649;53.672;10.064;2023-11-19T12:00:42;23.80;;;4.67;;
3274;SDS011;1649;53.672;10.064;2023-11-19T12:03:08;24.37;;;4.67;;
3274;SDS011;1649;53.672;10.064;2023-11-19T12:05:43;23.17;;;4.33;;
3274;SDS011;1649;53.672;10.064;2023-11-19T12:08:10;24.03;;;5.50;;
3274;SDS011;1649;53.672;10.064;2023-11-19T12:10:43;21.27;;;4.27;;
3274;SDS011;1649;53.672;10.064;2023-11-19T12:13:14;18.13;;;5.37;;
3274;SDS011;1649;53.672;10.064;2023-11-19T12:18:29;21.93;;;5.80;;
3274;SDS011;1649;53.672;10.064;2023-11-19T12:20:56;21.80;;;5.00;;
3274;SDS011;1649;53.672;10.064;2023-11-19T12:23:22;35.43;;;5.77;;
3274;SDS011;1649;53.672;10.064;2023-11-19T12:25:48;21.90;;;4.73;;
3274;SDS011;1649;53.672;10.064;2023-11-19T12:28:15;35.43;;;5.17;;
3274;SDS011;1649;53.672;10.064;2023-11-19T12:30:45;31.77;;;5.20;;
3274;SDS011;1649;53.672;10.064;2023-11-19T12:33:11;21.30;;;5.50;;
3274;SDS011;1649;53.672;10.064;2023-11-19T12:35:39;22.63;;;4.70;;
3274;SDS011;1649;53.672;10.064;2023-11-19T12:38:05;32.83;;;5.20;;
3274;SDS011;1649;53.672;10.064;2023-11-19T12:40:30;21.10;;;5.30;;
3274;SDS011;1649;53.672;10.064;2023-11-19T12:42:56;30.07;;;5.57;;
3274;SDS011;1649;53.672;10.064;2023-11-19T12:45:22;16.13;;;4.47;;
3274;SDS011;1649;53.672;10.064;2023-11-19T12:48:03;31.43;;;4.93;;
3274;SDS011;1649;53.672;10.064;2023-11-19T12:50:30;24.77;;;6.10;;
3274;SDS011;1649;53.672;10.064;2023-11-19T12:53:16;27.57;;;4.80;;
3274;SDS011;1649;53.672;10.064;2023-11-19T12:55:41;21.90;;;4.53;;
3274;SDS011;1649;53.672;10.064;2023-11-19T12:58:06;22.63;;;5.27;;
3274;SDS011;1649;53.672;10.064;2023-11-19T13:00:32;20.83;;;4.23;;
3274;SDS011;1649;53.672;10.064;2023-11-19T13:02:57;27.10;;;5.30;;
3274;SDS011;1649;53.672;10.064;2023-11-19T13:05:33;31.73;;;6.07;;
3274;SDS011;1649;53.672;10.064;2023-11-19T13:08:02;23.13;;;5.57;;
3274;SDS011;1649;53.672;10.064;2023-11-19T13:10:29;17.00;;;4.37;;
3274;SDS011;1649;53.672;10.064;2023-11-19T13:12:59;21.47;;;4.37;;
3274;SDS011;1649;53.672;10.064;2023-11-19T13:15:33;19.53;;;4.03;;
3274;SDS011;1649;53.672;10.064;2023-11-19T13:18:02;18.07;;;4.93;;
3274;SDS011;1649;53.672;10.064;2023-11-19T13:20:28;20.73;;;5.70;;
3274;SDS011;1649;53.672;10.064;2023-11-19T13:22:54;25.03;;;4.37;;
3274;SDS011;1649;53.672;10.064;2023-11-19T13:25:27;19.73;;;3.77;;
3274;SDS011;1649;53.672;10.064;2023-11-19T13:27:53;19.30;;;5.20;;
3274;SDS011;1649;53.672;10.064;2023-11-19T13:30:19;31.43;;;5.23;;
3274;SDS011;1649;53.672;10.064;2023-11-19T13:32:45;19.70;;;4.30;;
3274;SDS011;1649;53.672;10.064;2023-11-19T13:35:11;29.70;;;5.40;;
3274;SDS011;1649;53.672;10.064;2023-11-19T13:37:37;23.07;;;4.77;;
3274;SDS011;1649;53.672;10.064;2023-11-19T13:40:03;23.67;;;4.50;;
3274;SDS011;1649;53.672;10.064;2023-11-19T13:42:29;31.07;;;5.57;;
3274;SDS011;1649;53.672;10.064;2023-11-19T13:44:55;24.73;;;5.20;;
3274;SDS011;1649;53.672;10.064;2023-11-19T13:47:21;25.90;;;5.97;;
3274;SDS011;1649;53.672;10.064;2023-11-19T13:49:46;28.67;;;5.20;;
3274;SDS011;1649;53.672;10.064;2023-11-19T13:52:12;24.20;;;5.00;;
3274;SDS011;1649;53.672;10.064;2023-11-19T13:54:38;18.67;;;4.23;;
3274;SDS011;1649;53.672;10.064;2023-11-19T13:57:03;18.97;;;4.50;;
3274;SDS011;1649;53.672;10.064;2023-11-19T13:59:29;23.50;;;5.80;;
3274;SDS011;1649;53.672;10.064;2023-11-19T14:01:57;27.70;;;4.60;;
3274;SDS011;1649;53.672;10.064;2023-11-19T14:04:22;17.30;;;3.97;;
3274;SDS011;1649;53.672;10.064;2023-11-19T14:06:48;20.53;;;4.53;;
3274;SDS011;1649;53.672;10.064;2023-11-19T14:09:13;18.30;;;4.23;;
3274;SDS011;1649;53.672;10.064;2023-11-19T14:11:39;32.97;;;5.43;;
3274;SDS011;1649;53.672;10.064;2023-11-19T14:14:05;23.27;;;5.50;;
3274;SDS011;1649;53.672;10.064;2023-11-19T14:16:31;23.77;;;4.53;;
3274;SDS011;1649;53.672;10.064;2023-11-19T14:18:57;22.80;;;5.63;;
3274;SDS011;1649;53.672;10.064;2023-11-19T14:21:22;26.20;;;4.93;;
3274;SDS011;1649;53.672;10.064;2023-11-19T14:23:48;26.47;;;5.80;;
3274;SDS011;1649;53.672;10.064;2023-11-19T14:26:13;31.53;;;5.03;;
3274;SDS011;1649;53.672;10.064;2023-11-19T14:28:39;20.47;;;4.87;;
3274;SDS011;1649;53.672;10.064;2023-11-19T14:31:04;21.20;;;5.20;;
3274;SDS011;1649;53.672;10.064;2023-11-19T14:33:30;20.30;;;4.97;;
3274;SDS011;1649;53.672;10.064;2023-11-19T14:35:56;19.37;;;3.43;;
3274;SDS011;1649;53.672;10.064;2023-11-19T14:38:21;21.73;;;4.70;;
3274;SDS011;1649;53.672;10.064;2023-11-19T14:40:47;17.87;;;4.10;;
3274;SDS011;1649;53.672;10.064;2023-11-19T14:43:13;18.03;;;3.57;;
3274;SDS011;1649;53.672;10.064;2023-11-19T14:45:40;19.33;;;4.23;;
3274;SDS011;1649;53.672;10.064;2023-11-19T14:48:05;12.60;;;3.63;;
3274;SDS011;1649;53.672;10.064;2023-11-19T14:50:31;14.23;;;3.90;;
3274;SDS011;1649;53.672;10.064;2023-11-19T14:52:56;14.27;;;3.10;;
3274;SDS011;1649;53.672;10.064;2023-11-19T14:55:23;14.30;;;3.40;;
3274;SDS011;1649;53.672;10.064;2023-11-19T14:57:48;14.97;;;2.70;;
3274;SDS011;1649;53.672;10.064;2023-11-19T15:00:15;9.63;;;3.17;;
3274;SDS011;1649;53.672;10.064;2023-11-19T15:02:41;12.77;;;3.80;;